Time;durP1;ratioP1;P1;durP2;ratioP2;P2;SDS_P1;SDS_P2;PMS_P1;PMS_P2;Temp;Humidity;BMP_temperature;BMP_pressure;BME280_temperature;BME280_humidity;BME280_pressure;Samples;Min_cycle;Max_cycle;Signal;HPM_P1;HPM_P2
2021/12/07 05:01:12;;;;;;;2.83;1.50;;;3.70;99.90;;;;;;5642386;23;20511;-67
2021/12/07 05:03:40;;;;;;;2.40;1.03;;;3.70;99.90;;;;;;4975772;28;20526;-67
2021/12/07 05:06:09;;;;;;;1.43;1.30;;;3.70;99.90;;;;;;4975791;28;20559;-67
2021/12/07 05:08:40;;;;;;;1.43;1.33;;;3.70;99.90;;;;;;4977256;28;20477;-67
2021/12/07 05:11:34;;;;;;;2.63;1.17;;;3.70;99.90;;;;;;4976881;28;20479;-66
2021/12/07 05:14:15;;;;;;;1.57;1.37;;;3.60;99.90;;;;;;4975519;28;20451;-67
2021/12/07 05:25:24;;;;;;;2.00;1.50;;;3.50;99.90;;;;;;4975375;28;20419;-66
2021/12/07 05:38:50;;;;;;;2.57;1.60;;;3.40;99.90;;;;;;4975354;28;20419;-67
2021/12/07 05:41:17;;;;;;;9.30;1.80;;;3.40;99.90;;;;;;4978065;28;20986;-67
2021/12/07 05:43:43;;;;;;;6.83;2.50;;;3.50;99.90;;;;;;4978761;28;20459;-66
2021/12/07 05:46:10;;;;;;;6.43;2.20;;;3.50;99.90;;;;;;4978044;28;20993;-67
2021/12/07 05:48:39;;;;;;;3.87;2.03;;;3.50;99.90;;;;;;4979332;28;20451;-66
2021/12/07 05:51:05;;;;;;;3.80;2.93;;;3.60;99.90;;;;;;4978610;28;20834;-67
2021/12/07 05:53:32;;;;;;;4.30;2.10;;;3.70;99.90;;;;;;4979217;28;20455;-67
2021/12/07 05:55:59;;;;;;;4.37;2.60;;;3.70;99.90;;;;;;4978922;28;20938;-67
2021/12/07 05:58:25;;;;;;;5.87;2.40;;;3.80;99.90;;;;;;4979402;28;20458;-70
2021/12/07 06:00:57;;;;;;;2.20;2.00;;;3.80;99.90;;;;;;4977972;28;20537;-70
2021/12/07 06:03:25;;;;;;;7.50;2.93;;;3.90;99.90;;;;;;4977988;28;20916;-70
2021/12/07 06:05:55;;;;;;;6.17;2.30;;;4.30;99.90;;;;;;4978041;28;20467;-71
2021/12/07 06:08:23;;;;;;;5.83;2.73;;;4.60;99.90;;;;;;4977906;28;20462;-68
2021/12/07 06:10:49;;;;;;;6.43;3.00;;;4.80;99.90;;;;;;4977752;28;20482;-67
2021/12/07 06:13:16;;;;;;;2.17;1.97;;;4.90;99.90;;;;;;4977771;28;20454;-67
2021/12/07 06:15:45;;;;;;;5.53;2.53;;;4.90;99.90;;;;;;4977885;28;20454;-67
2021/12/07 06:18:12;;;;;;;2.63;2.43;;;4.70;99.90;;;;;;4977454;28;20455;-67
2021/12/07 06:20:41;;;;;;;3.67;2.20;;;4.70;99.90;;;;;;4977570;28;20479;-67
2021/12/07 06:23:09;;;;;;;3.70;2.30;;;4.70;99.90;;;;;;4977508;28;20554;-67
2021/12/07 06:25:36;;;;;;;4.30;2.00;;;4.70;99.90;;;;;;4977307;28;20943;-67
2021/12/07 06:28:03;;;;;;;3.00;2.17;;;4.70;99.90;;;;;;4977460;28;20517;-68
2021/12/07 06:30:30;;;;;;;4.87;2.50;;;4.70;99.90;;;;;;4977358;28;20486;-67
2021/12/07 06:32:57;;;;;;;3.30;2.37;;;4.70;99.90;;;;;;4977419;28;20455;-67
2021/12/07 06:35:23;;;;;;;4.60;2.53;;;4.70;99.90;;;;;;4977555;28;20451;-67
2021/12/07 06:37:50;;;;;;;4.63;2.20;;;4.70;99.90;;;;;;4977358;28;20455;-67
2021/12/07 06:40:20;;;;;;;13.70;2.50;;;4.60;99.90;;;;;;4977276;28;20455;-67
2021/12/07 06:42:47;;;;;;;3.90;1.97;;;4.60;99.90;;;;;;4977205;28;20462;-67
2021/12/07 06:45:14;;;;;;;3.70;1.97;;;4.60;99.90;;;;;;4977296;28;20459;-67
2021/12/07 06:47:41;;;;;;;6.03;2.80;;;4.60;99.90;;;;;;4977213;28;20462;-67
2021/12/07 06:50:10;;;;;;;3.53;2.07;;;4.60;99.90;;;;;;4977292;28;20462;-67
2021/12/07 06:52:37;;;;;;;6.70;2.00;;;4.60;99.90;;;;;;4976481;28;20451;-67
2021/12/07 06:55:05;;;;;;;4.73;2.20;;;4.60;99.90;;;;;;4977129;28;20461;-68
2021/12/07 06:57:35;;;;;;;6.63;2.30;;;4.60;99.90;;;;;;4976794;28;20938;-67
2021/12/07 07:00:02;;;;;;;6.23;2.00;;;4.60;99.90;;;;;;4976896;28;20805;-67
2021/12/07 07:02:28;;;;;;;3.87;1.97;;;4.60;99.90;;;;;;4976395;28;20570;-67
2021/12/07 07:04:55;;;;;;;5.27;2.40;;;4.50;99.90;;;;;;4976899;28;20481;-67
2021/12/07 07:07:24;;;;;;;9.90;2.57;;;4.40;99.90;;;;;;4976635;28;20486;-67
2021/12/07 07:09:50;;;;;;;5.10;2.30;;;4.40;99.90;;;;;;4976872;28;20486;-67
2021/12/07 07:12:17;;;;;;;5.43;2.70;;;4.30;99.90;;;;;;4976420;28;20982;-67
2021/12/07 07:14:46;;;;;;;5.20;2.30;;;4.40;99.90;;;;;;4976915;28;20463;-67
2021/12/07 07:17:13;;;;;;;7.37;2.90;;;4.30;99.90;;;;;;4976630;28;20452;-67
2021/12/07 07:19:40;;;;;;;2.17;1.83;;;4.20;99.90;;;;;;4977494;28;20466;-67
2021/12/07 07:22:07;;;;;;;6.30;3.17;;;4.20;99.90;;;;;;4976713;28;20490;-67
2021/12/07 07:24:34;;;;;;;9.23;3.13;;;4.20;99.90;;;;;;4976634;28;20460;-67
2021/12/07 07:27:01;;;;;;;10.43;2.47;;;4.20;99.90;;;;;;4976384;28;20474;-68
2021/12/07 07:29:28;;;;;;;4.90;3.43;;;4.30;99.90;;;;;;4976425;28;20466;-67
2021/12/07 07:31:57;;;;;;;6.60;2.43;;;4.30;99.90;;;;;;4976486;28;20484;-67
2021/12/07 07:34:24;;;;;;;13.23;3.87;;;4.30;99.90;;;;;;4976232;28;20459;-68
2021/12/07 07:36:51;;;;;;;5.43;2.77;;;4.40;99.90;;;;;;4976216;28;20502;-67
2021/12/07 07:39:17;;;;;;;3.93;2.63;;;4.40;99.90;;;;;;4975981;28;20973;-67
2021/12/07 07:41:44;;;;;;;8.13;2.63;;;4.40;99.90;;;;;;4976113;28;20801;-68
2021/12/07 07:44:11;;;;;;;4.73;2.30;;;4.50;99.90;;;;;;4975903;28;20463;-68
2021/12/07 07:46:38;;;;;;;10.57;3.00;;;4.50;99.90;;;;;;4976025;28;20549;-68
2021/12/07 07:49:06;;;;;;;10.63;3.20;;;4.60;99.90;;;;;;4976000;28;20462;-68
2021/12/07 07:51:33;;;;;;;5.40;3.93;;;4.60;99.90;;;;;;4976049;28;20471;-68
2021/12/07 07:54:00;;;;;;;4.97;2.50;;;4.60;99.90;;;;;;4975375;28;20973;-68
2021/12/07 07:56:27;;;;;;;6.70;2.67;;;4.70;99.90;;;;;;4975840;28;20790;-67
2021/12/07 07:58:55;;;;;;;6.23;2.40;;;4.70;99.90;;;;;;4976030;28;20466;-66
2021/12/07 08:01:23;;;;;;;9.50;2.43;;;4.70;99.90;;;;;;4976005;28;20497;-66
2021/12/07 08:03:50;;;;;;;3.10;2.47;;;4.60;99.90;;;;;;4979932;28;20489;-64
2021/12/07 08:06:18;;;;;;;9.67;2.60;;;4.60;99.90;;;;;;4978421;28;20479;-66
2021/12/07 08:08:45;;;;;;;8.30;2.73;;;4.70;99.90;;;;;;4979192;28;20463;-65
2021/12/07 08:11:13;;;;;;;4.20;1.80;;;4.70;99.90;;;;;;4978412;28;20554;-65
2021/12/07 08:13:40;;;;;;;6.47;2.37;;;4.80;99.90;;;;;;4978021;28;20491;-64
2021/12/07 08:16:15;;;;;;;5.60;2.17;;;4.80;99.90;;;;;;4977799;28;20459;-65
2021/12/07 08:18:42;;;;;;;8.10;2.60;;;4.90;99.90;;;;;;4977905;28;20442;-65
2021/12/07 08:21:09;;;;;;;8.87;2.77;;;4.80;99.90;;;;;;4978490;28;20483;-64
2021/12/07 08:23:38;;;;;;;7.90;2.10;;;4.90;99.90;;;;;;4978173;28;20467;-64
2021/12/07 08:26:06;;;;;;;7.83;2.77;;;4.90;99.90;;;;;;4977787;28;20534;-64
2021/12/07 08:28:33;;;;;;;8.20;2.83;;;4.90;99.90;;;;;;4978326;28;20491;-64
2021/12/07 08:31:00;;;;;;;8.40;2.10;;;4.90;99.90;;;;;;4980030;28;20478;-65
2021/12/07 08:33:27;;;;;;;4.50;2.63;;;5.00;99.90;;;;;;4991423;28;20455;-64
2021/12/07 08:35:54;;;;;;;4.57;2.30;;;5.00;99.90;;;;;;4984124;28;20435;-64
2021/12/07 08:38:21;;;;;;;8.03;2.23;;;5.10;99.90;;;;;;4977669;28;20492;-65
2021/12/07 08:40:53;;;;;;;9.93;2.70;;;5.20;99.90;;;;;;4977477;28;20985;-64
2021/12/07 08:43:21;;;;;;;29.33;3.10;;;5.20;99.90;;;;;;4981731;28;20440;-64
2021/12/07 08:45:49;;;;;;;6.17;2.67;;;5.30;99.90;;;;;;4980725;28;20466;-65
2021/12/07 08:48:16;;;;;;;7.03;2.27;;;5.40;99.90;;;;;;4982200;28;20462;-65
2021/12/07 08:50:44;;;;;;;6.67;1.80;;;5.40;99.90;;;;;;4979152;28;20878;-65
2021/12/07 08:53:13;;;;;;;6.60;2.43;;;5.40;99.90;;;;;;4978850;28;20459;-64
2021/12/07 09:01:14;;;;;;;7.43;2.13;;;5.40;99.90;;;;;;4979543;28;20474;-64
2021/12/07 09:03:41;;;;;;;8.60;2.00;;;5.50;99.90;;;;;;4979524;28;20463;-64
2021/12/07 09:06:08;;;;;;;6.07;1.60;;;5.40;99.90;;;;;;4979204;28;20467;-65
2021/12/07 09:08:35;;;;;;;14.23;3.47;;;5.50;99.90;;;;;;4979362;28;20508;-64
2021/12/07 09:11:03;;;;;;;3.63;1.60;;;5.50;99.90;;;;;;4978755;28;20471;-64
2021/12/07 09:13:31;;;;;;;8.23;2.83;;;5.60;99.90;;;;;;4978741;28;20553;-64
2021/12/07 09:15:58;;;;;;;4.17;2.13;;;5.60;99.90;;;;;;4983048;28;20462;-64
2021/12/07 09:18:26;;;;;;;4.63;1.90;;;5.70;99.90;;;;;;4985369;28;20948;-64
2021/12/07 09:20:53;;;;;;;5.67;2.00;;;5.70;99.90;;;;;;4985971;28;20470;-64
2021/12/07 09:23:20;;;;;;;5.37;2.00;;;5.60;99.90;;;;;;4984810;28;20760;-64
2021/12/07 09:25:47;;;;;;;6.37;1.80;;;5.70;99.90;;;;;;4981437;28;20455;-64
2021/12/07 09:28:14;;;;;;;3.67;1.90;;;5.60;99.90;;;;;;4980802;28;20486;-64
2021/12/07 09:30:43;;;;;;;12.93;2.50;;;5.70;99.90;;;;;;4981650;28;20474;-64
2021/12/07 09:33:10;;;;;;;4.70;1.93;;;5.70;99.90;;;;;;4982282;28;20436;-64
2021/12/07 09:35:37;;;;;;;10.03;2.23;;;5.80;99.90;;;;;;4980761;28;20458;-65
2021/12/07 09:38:04;;;;;;;6.33;2.03;;;5.90;99.90;;;;;;4978613;28;20835;-66
2021/12/07 09:40:31;;;;;;;6.50;1.87;;;6.10;99.90;;;;;;4979898;28;20462;-65
2021/12/07 09:42:59;;;;;;;7.53;2.67;;;6.20;99.90;;;;;;4980876;28;20459;-66
2021/12/07 09:45:30;;;;;;;2.67;1.50;;;6.40;99.90;;;;;;4980810;28;20463;-66
2021/12/07 09:47:59;;;;;;;3.67;1.60;;;6.70;99.90;;;;;;4980809;28;20502;-65
2021/12/07 09:50:26;;;;;;;6.37;1.90;;;7.00;99.90;;;;;;4980353;28;20459;-67
2021/12/07 09:52:53;;;;;;;6.10;1.63;;;7.20;99.90;;;;;;4978378;28;20466;-67
2021/12/07 09:55:20;;;;;;;2.00;1.80;;;7.50;99.90;;;;;;4978025;28;20824;-66
2021/12/07 09:57:48;;;;;;;4.90;1.73;;;7.70;99.90;;;;;;4978474;28;20447;-66
2021/12/07 10:00:19;;;;;;;4.03;1.90;;;7.80;99.90;;;;;;4977905;28;20957;-66
2021/12/07 10:02:46;;;;;;;4.60;1.57;;;7.80;99.90;;;;;;4979847;28;20502;-67
2021/12/07 10:05:16;;;;;;;5.30;1.90;;;7.70;99.90;;;;;;4978005;28;20462;-68
2021/12/07 10:07:44;;;;;;;2.87;1.70;;;7.60;99.90;;;;;;4978150;28;20566;-68
2021/12/07 10:10:19;;;;;;;4.33;1.80;;;7.50;99.90;;;;;;4977872;28;20786;-68
2021/12/07 10:12:46;;;;;;;4.37;1.77;;;7.50;99.90;;;;;;4978446;28;20450;-68
2021/12/07 10:15:14;;;;;;;2.47;1.30;;;7.50;99.90;;;;;;4978960;28;20959;-65
2021/12/07 10:17:42;;;;;;;8.93;2.23;;;7.40;99.90;;;;;;4979012;28;20479;-65
2021/12/07 10:20:32;;;;;;;6.47;2.10;;;7.30;99.90;;;;;;4978594;28;20502;-65
2021/12/07 10:23:04;;;;;;;5.57;1.60;;;7.40;99.90;;;;;;4978702;28;20473;-65
2021/12/07 10:25:31;;;;;;;10.80;1.80;;;7.60;99.90;;;;;;4979217;28;20443;-65
2021/12/07 10:27:58;;;;;;;3.03;1.57;;;8.20;99.90;;;;;;4980370;28;20660;-65
2021/12/07 10:30:25;;;;;;;3.33;1.53;;;8.90;99.90;;;;;;4981446;28;20797;-66
2021/12/07 10:33:01;;;;;;;2.57;1.50;;;9.60;99.90;;;;;;4981724;28;20466;-65
2021/12/07 10:35:31;;;;;;;6.10;2.00;;;10.80;99.90;;;;;;4981723;28;20455;-65
2021/12/07 10:38:12;;;;;;;3.03;1.77;;;11.90;99.90;;;;;;4981621;28;20436;-66
2021/12/07 10:40:54;;;;;;;3.40;1.40;;;12.80;99.90;;;;;;4979974;28;20479;-67
2021/12/07 10:43:40;;;;;;;5.17;1.70;;;13.00;98.30;;;;;;4977750;28;20446;-67
2021/12/07 10:46:29;;;;;;;4.40;1.73;;;12.90;96.20;;;;;;4977329;28;20937;-67
2021/12/07 10:49:17;;;;;;;4.77;1.33;;;12.20;97.40;;;;;;4977517;28;20443;-66
2021/12/07 10:52:17;;;;;;;4.63;1.77;;;11.50;98.30;;;;;;4980658;28;20484;-64
2021/12/07 10:54:50;;;;;;;3.40;1.80;;;10.90;99.30;;;;;;4980959;28;20460;-63
2021/12/07 10:57:19;;;;;;;4.47;1.80;;;10.10;99.90;;;;;;4977777;28;20490;-66
2021/12/07 10:59:55;;;;;;;2.63;1.17;;;9.70;99.90;;;;;;4977698;28;20458;-65
2021/12/07 11:02:24;;;;;;;4.60;1.60;;;9.30;99.90;;;;;;4977395;28;20491;-66
2021/12/07 11:04:53;;;;;;;4.30;2.07;;;8.90;99.90;;;;;;4977119;28;20942;-66
2021/12/07 11:07:23;;;;;;;4.20;2.50;;;8.50;99.90;;;;;;4977635;28;20474;-66
2021/12/07 11:09:59;;;;;;;4.97;1.80;;;8.20;99.90;;;;;;4977262;28;20459;-64
2021/12/07 11:12:34;;;;;;;5.97;1.67;;;7.80;99.90;;;;;;4978369;28;21053;-65
2021/12/07 11:15:01;;;;;;;5.70;2.27;;;7.70;99.90;;;;;;4977390;28;20498;-64
2021/12/07 11:17:31;;;;;;;4.67;1.70;;;7.60;99.90;;;;;;4977967;28;20899;-67
2021/12/07 11:19:59;;;;;;;3.90;2.13;;;7.50;99.90;;;;;;4976871;28;20950;-65
2021/12/07 11:22:31;;;;;;;5.93;2.03;;;7.70;99.90;;;;;;4976732;28;20470;-66
2021/12/07 11:25:01;;;;;;;4.77;1.40;;;7.80;99.90;;;;;;4978243;28;20456;-64
2021/12/07 11:30:15;;;;;;;4.67;2.17;;;8.10;99.90;;;;;;4978956;28;20479;-64
2021/12/07 11:32:44;;;;;;;1.30;1.20;;;8.30;99.90;;;;;;4977795;28;20436;-64
2021/12/07 11:35:15;;;;;;;4.60;1.70;;;8.30;99.90;;;;;;4976924;28;20466;-65
2021/12/07 11:37:44;;;;;;;1.90;1.30;;;8.30;99.90;;;;;;4977069;28;20459;-66
2021/12/07 11:40:13;;;;;;;6.93;2.27;;;8.20;99.90;;;;;;4978195;28;20462;-67
2021/12/07 11:42:42;;;;;;;3.00;1.53;;;8.10;99.90;;;;;;4977506;28;20455;-66
2021/12/07 11:45:16;;;;;;;4.67;1.70;;;8.10;99.90;;;;;;4977153;28;20889;-67
2021/12/07 11:47:45;;;;;;;6.97;1.73;;;8.10;99.90;;;;;;4983999;28;20499;-65
2021/12/07 11:50:18;;;;;;;3.70;1.80;;;8.10;99.90;;;;;;4988394;28;20455;-65
2021/12/07 11:52:48;;;;;;;4.77;1.50;;;8.10;99.90;;;;;;4978530;28;20446;-68
2021/12/07 11:55:17;;;;;;;5.33;1.80;;;8.10;99.90;;;;;;4977316;28;20933;-65
2021/12/07 11:57:43;;;;;;;2.77;2.03;;;8.00;99.90;;;;;;4977003;28;20459;-67
2021/12/07 12:00:13;;;;;;;4.20;1.57;;;7.90;99.90;;;;;;4977202;28;20459;-66
2021/12/07 12:02:40;;;;;;;4.40;1.50;;;7.90;99.90;;;;;;4976214;28;20466;-67
2021/12/07 12:05:08;;;;;;;6.40;1.70;;;7.90;99.90;;;;;;4976377;28;20451;-67
2021/12/07 12:07:36;;;;;;;4.20;1.27;;;8.00;99.90;;;;;;4976402;28;20490;-68
2021/12/07 12:10:06;;;;;;;2.70;1.10;;;8.20;99.90;;;;;;4976529;28;20462;-67
2021/12/07 12:12:40;;;;;;;5.13;1.93;;;8.50;99.90;;;;;;4976633;28;20475;-67
2021/12/07 12:15:24;;;;;;;5.30;1.30;;;8.50;99.90;;;;;;4976315;28;20446;-68
2021/12/07 12:18:06;;;;;;;2.60;1.47;;;8.70;99.90;;;;;;4977234;28;20448;-65
2021/12/07 12:20:43;;;;;;;1.73;1.20;;;8.60;99.90;;;;;;4976401;28;20439;-67
2021/12/07 12:23:20;;;;;;;3.27;1.60;;;8.70;99.90;;;;;;4976123;28;20431;-68
2021/12/07 12:25:57;;;;;;;5.30;1.93;;;8.80;99.90;;;;;;4976655;28;20443;-67
2021/12/07 12:28:26;;;;;;;6.33;1.50;;;8.80;99.90;;;;;;4976590;28;20474;-67
2021/12/07 12:30:53;;;;;;;2.87;1.40;;;8.80;99.90;;;;;;4976062;28;20549;-67
2021/12/07 12:33:20;;;;;;;6.10;1.50;;;8.70;99.90;;;;;;4976135;28;20447;-66
2021/12/07 12:35:51;;;;;;;2.27;1.30;;;8.60;99.90;;;;;;4976251;28;20459;-66
2021/12/07 12:38:20;;;;;;;3.60;1.33;;;8.60;99.90;;;;;;4976058;28;20526;-67
2021/12/07 12:40:58;;;;;;;3.57;1.20;;;8.60;99.90;;;;;;4976498;28;20502;-66
2021/12/07 12:43:41;;;;;;;4.40;1.40;;;8.60;99.90;;;;;;4975935;28;20443;-66
2021/12/07 12:46:09;;;;;;;6.10;1.37;;;8.50;99.90;;;;;;4975747;28;20443;-66
2021/12/07 12:48:36;;;;;;;4.33;1.50;;;8.50;99.90;;;;;;4975806;28;20494;-66
2021/12/07 12:51:04;;;;;;;4.47;1.73;;;8.40;99.90;;;;;;4975922;28;20479;-66
2021/12/07 12:53:34;;;;;;;6.43;1.87;;;8.40;99.90;;;;;;4976135;28;20501;-67
2021/12/07 12:56:05;;;;;;;2.83;1.37;;;8.50;99.90;;;;;;4975551;28;20446;-66
2021/12/07 12:58:42;;;;;;;5.37;1.43;;;8.50;99.90;;;;;;4975521;28;20439;-66
2021/12/07 13:01:18;;;;;;;4.80;1.80;;;8.60;99.90;;;;;;4975255;28;20486;-66
2021/12/07 13:04:00;;;;;;;4.47;2.00;;;8.50;99.90;;;;;;4976419;28;20435;-65
2021/12/07 13:06:48;;;;;;;2.20;1.10;;;8.50;99.90;;;;;;4975751;28;20495;-67
2021/12/07 13:09:34;;;;;;;7.57;1.77;;;8.40;99.90;;;;;;4975795;28;20467;-66
2021/12/07 13:12:06;;;;;;;2.63;1.47;;;8.40;99.90;;;;;;4975629;28;20840;-67
2021/12/07 13:14:40;;;;;;;12.33;2.10;;;8.40;99.90;;;;;;4975293;28;20443;-66
2021/12/07 13:17:15;;;;;;;3.10;1.10;;;8.40;99.90;;;;;;4975931;28;20499;-67
2021/12/07 13:20:09;;;;;;;6.10;1.20;;;8.40;99.90;;;;;;4975262;28;20441;-66
2021/12/07 13:22:38;;;;;;;7.57;1.50;;;8.40;99.90;;;;;;4953326;28;20482;-66
2021/12/07 13:25:08;;;;;;;2.90;1.37;;;8.50;99.90;;;;;;4975269;28;20458;-66
2021/12/07 13:27:37;;;;;;;3.00;1.20;;;8.50;99.90;;;;;;4974379;28;20996;-65
2021/12/07 13:30:07;;;;;;;4.10;1.20;;;8.50;99.90;;;;;;4974975;28;20479;-66
2021/12/07 13:32:34;;;;;;;3.60;1.77;;;8.50;99.90;;;;;;4974743;28;20474;-66
2021/12/07 13:35:03;;;;;;;4.30;2.10;;;8.50;99.90;;;;;;4974987;28;20454;-66
2021/12/07 13:37:51;;;;;;;4.00;1.47;;;8.50;99.90;;;;;;4974997;28;20461;-66
2021/12/07 13:40:20;;;;;;;3.23;1.20;;;8.50;99.90;;;;;;4969926;28;20458;-67
2021/12/07 13:42:51;;;;;;;2.63;1.20;;;8.50;99.90;;;;;;4974879;28;20439;-66
2021/12/07 13:45:19;;;;;;;5.67;1.70;;;8.50;99.90;;;;;;4974935;28;20439;-66
2021/12/07 13:47:49;;;;;;;4.97;1.63;;;8.20;99.90;;;;;;4974764;28;20578;-66
2021/12/07 13:50:18;;;;;;;2.60;1.67;;;8.10;99.90;;;;;;4974596;28;20452;-66
2021/12/07 13:52:49;;;;;;;5.70;1.60;;;8.20;99.90;;;;;;4974787;28;20813;-66
2021/12/07 13:55:19;;;;;;;4.20;1.57;;;8.20;99.90;;;;;;4977976;28;20499;-65
2021/12/07 13:57:50;;;;;;;5.37;1.60;;;8.10;99.90;;;;;;4978661;28;20494;-66
2021/12/07 14:00:19;;;;;;;4.10;1.73;;;8.00;99.90;;;;;;4976813;28;20450;-66
2021/12/07 14:02:50;;;;;;;3.00;1.33;;;7.90;99.90;;;;;;4978430;28;20439;-66
2021/12/07 14:05:20;;;;;;;5.40;1.70;;;7.90;99.90;;;;;;4978422;28;20435;-66
2021/12/07 14:07:48;;;;;;;2.40;1.10;;;7.80;99.90;;;;;;4982532;28;20475;-67
2021/12/07 14:10:20;;;;;;;4.27;1.07;;;7.70;99.90;;;;;;4982315;28;20460;-67
2021/12/07 14:12:49;;;;;;;7.67;1.73;;;7.70;99.90;;;;;;4983070;28;20439;-67
2021/12/07 14:15:19;;;;;;;4.33;0.80;;;7.60;99.90;;;;;;4982130;28;20522;-66
2021/12/07 14:17:49;;;;;;;7.20;1.40;;;7.70;99.90;;;;;;4978763;28;20443;-66
2021/12/07 14:20:28;;;;;;;8.80;2.07;;;7.80;99.90;;;;;;4977568;28;20491;-66
2021/12/07 14:22:56;;;;;;;1.30;0.97;;;7.90;99.90;;;;;;4977863;28;20450;-66
2021/12/07 14:25:22;;;;;;;1.30;1.10;;;7.80;99.90;;;;;;4977817;28;20455;-66
2021/12/07 14:27:50;;;;;;;4.83;1.23;;;7.70;99.90;;;;;;4977701;28;20479;-66
2021/12/07 14:30:17;;;;;;;4.03;1.10;;;7.70;99.90;;;;;;4977828;28;20466;-66
2021/12/07 14:32:45;;;;;;;2.53;1.33;;;7.80;99.90;;;;;;4977898;28;20481;-66
2021/12/07 14:35:12;;;;;;;2.17;1.20;;;7.80;99.90;;;;;;4977987;28;20455;-66
2021/12/07 14:37:39;;;;;;;2.57;1.23;;;7.80;99.90;;;;;;4978131;28;20459;-66
2021/12/07 14:40:08;;;;;;;2.90;1.60;;;7.80;99.90;;;;;;4977696;28;20459;-66
2021/12/07 14:42:35;;;;;;;3.87;1.80;;;7.80;99.90;;;;;;4977739;28;20479;-66
2021/12/07 14:45:04;;;;;;;2.40;1.30;;;7.80;99.90;;;;;;4977596;28;20447;-66
2021/12/07 14:47:31;;;;;;;2.77;1.23;;;7.80;99.90;;;;;;4978306;28;20455;-66
2021/12/07 14:50:00;;;;;;;2.67;1.30;;;7.60;99.90;;;;;;4978191;28;20490;-66
2021/12/07 14:52:29;;;;;;;4.60;1.57;;;7.50;99.90;;;;;;4978076;28;20478;-65
2021/12/07 14:54:57;;;;;;;3.20;1.40;;;7.30;99.90;;;;;;4978038;28;20463;-65
2021/12/07 14:57:24;;;;;;;2.33;1.30;;;7.20;99.90;;;;;;4977488;28;20801;-65
2021/12/07 14:59:57;;;;;;;2.33;1.53;;;7.10;99.90;;;;;;4977355;28;20463;-65
2021/12/07 15:02:26;;;;;;;3.50;1.53;;;6.90;99.90;;;;;;4977176;28;20496;-65
2021/12/07 15:04:57;;;;;;;7.80;1.47;;;6.80;99.90;;;;;;4977070;28;20448;-65
2021/12/07 15:07:31;;;;;;;2.40;1.13;;;6.70;99.90;;;;;;4976938;28;20907;-65
2021/12/07 15:09:58;;;;;;;1.40;1.30;;;6.60;99.90;;;;;;4976767;28;20547;-65
2021/12/07 15:12:25;;;;;;;2.60;1.87;;;6.50;99.90;;;;;;4975959;28;20475;-65
2021/12/07 15:14:57;;;;;;;2.50;1.20;;;6.40;99.90;;;;;;4976873;28;20455;-65
2021/12/07 15:17:26;;;;;;;9.00;1.60;;;6.30;99.90;;;;;;4976845;28;20467;-65
2021/12/07 15:19:53;;;;;;;7.30;2.10;;;6.20;99.90;;;;;;4977126;28;20803;-65
2021/12/07 15:22:22;;;;;;;5.10;1.60;;;6.10;99.90;;;;;;4976469;28;20839;-65
2021/12/07 15:24:49;;;;;;;4.97;1.93;;;6.00;99.90;;;;;;4976863;28;20486;-65
2021/12/07 15:27:21;;;;;;;1.60;1.50;;;5.90;99.90;;;;;;4976598;28;20462;-65
2021/12/07 15:29:51;;;;;;;4.73;1.47;;;5.90;99.90;;;;;;4976713;28;20830;-65
2021/12/07 15:32:19;;;;;;;2.40;1.90;;;5.80;99.90;;;;;;4980700;28;20454;-67
2021/12/07 15:34:48;;;;;;;6.00;1.80;;;5.80;99.90;;;;;;4989979;28;20456;-66
2021/12/07 15:37:19;;;;;;;4.00;1.80;;;5.70;99.90;;;;;;4986216;28;20482;-65
2021/12/07 15:39:50;;;;;;;2.63;1.53;;;5.70;99.90;;;;;;4978338;28;20451;-65
2021/12/07 15:42:19;;;;;;;4.27;1.73;;;5.70;99.90;;;;;;4977861;28;20478;-66
2021/12/07 15:44:52;;;;;;;5.77;1.73;;;5.60;99.90;;;;;;4976857;28;20553;-65
2021/12/07 15:47:22;;;;;;;4.20;1.83;;;5.50;99.90;;;;;;4976543;28;20443;-65
2021/12/07 15:49:52;;;;;;;2.27;1.60;;;5.50;99.90;;;;;;4976342;28;20573;-65
2021/12/07 15:52:21;;;;;;;7.43;2.63;;;5.40;99.90;;;;;;4976612;28;20475;-65
2021/12/07 15:54:59;;;;;;;4.90;1.80;;;5.30;99.90;;;;;;4976508;28;20947;-65
2021/12/07 15:57:27;;;;;;;4.27;2.27;;;5.30;99.90;;;;;;4976288;28;20443;-65
2021/12/07 15:59:57;;;;;;;3.70;2.13;;;5.20;99.90;;;;;;4976234;28;20463;-65
2021/12/07 16:02:24;;;;;;;5.73;1.53;;;5.10;99.90;;;;;;4976125;28;20487;-65
2021/12/07 16:04:52;;;;;;;4.13;1.67;;;5.10;99.90;;;;;;4976222;28;20459;-65
2021/12/07 16:07:22;;;;;;;3.80;2.10;;;5.10;99.90;;;;;;4976283;28;20482;-65
2021/12/07 16:10:04;;;;;;;4.63;1.53;;;5.00;99.90;;;;;;4976386;28;20499;-65
2021/12/07 16:12:31;;;;;;;7.40;1.67;;;5.00;99.90;;;;;;4976487;28;20479;-65
2021/12/07 16:15:10;;;;;;;9.83;3.40;;;5.00;99.90;;;;;;4976253;28;20462;-65
2021/12/07 16:17:37;;;;;;;5.20;3.03;;;5.00;99.90;;;;;;4975875;28;20910;-65
2021/12/07 16:20:06;;;;;;;5.67;2.90;;;5.00;99.90;;;;;;4976007;28;20458;-66
2021/12/07 16:22:33;;;;;;;8.97;4.30;;;5.00;99.90;;;;;;4976064;28;20835;-66
2021/12/07 16:25:00;;;;;;;5.63;3.70;;;4.90;99.90;;;;;;4975187;28;20455;-66
2021/12/07 16:27:27;;;;;;;6.47;3.93;;;4.90;99.90;;;;;;4975771;28;20799;-66
2021/12/07 16:29:53;;;;;;;6.03;3.53;;;4.80;99.90;;;;;;4975839;28;20878;-65
2021/12/07 16:32:20;;;;;;;6.37;3.60;;;4.80;99.90;;;;;;4975186;28;20471;-65
2021/12/07 16:34:47;;;;;;;5.27;3.10;;;4.80;99.90;;;;;;4975711;28;20459;-65
2021/12/07 16:37:15;;;;;;;6.20;3.23;;;4.80;99.90;;;;;;4975810;28;20879;-65
2021/12/07 16:39:42;;;;;;;4.17;3.40;;;4.80;99.90;;;;;;4975563;28;20470;-66
2021/12/07 16:42:10;;;;;;;4.20;3.40;;;4.80;99.90;;;;;;4975398;28;20478;-65
2021/12/07 16:44:37;;;;;;;4.47;2.67;;;4.70;99.90;;;;;;4975170;28;20803;-65
2021/12/07 16:47:04;;;;;;;7.47;3.43;;;4.70;99.90;;;;;;4975872;28;20817;-65
2021/12/07 16:49:31;;;;;;;8.27;3.83;;;4.60;99.90;;;;;;4975288;28;20990;-65
2021/12/07 16:51:58;;;;;;;5.63;2.77;;;4.50;99.90;;;;;;4975180;28;20478;-65
2021/12/07 16:54:26;;;;;;;8.37;3.40;;;4.50;99.90;;;;;;4975280;28;20454;-65
2021/12/07 16:56:53;;;;;;;4.23;3.03;;;4.40;99.90;;;;;;4975675;28;20459;-65
2021/12/07 16:59:20;;;;;;;8.93;3.37;;;4.30;99.90;;;;;;4975986;28;20458;-64
2021/12/07 17:01:46;;;;;;;3.83;3.47;;;4.20;99.90;;;;;;4976677;28;20493;-64
2021/12/07 17:04:13;;;;;;;3.90;2.87;;;4.10;99.90;;;;;;4975951;28;20463;-65
2021/12/07 17:06:40;;;;;;;6.33;3.63;;;4.10;99.90;;;;;;4975407;28;20950;-65
2021/12/07 17:09:07;;;;;;;7.30;3.77;;;4.00;99.90;;;;;;4975504;28;20483;-65
2021/12/07 17:11:36;;;;;;;5.83;3.47;;;3.90;99.90;;;;;;4975315;28;20574;-65
2021/12/07 17:14:03;;;;;;;4.80;3.70;;;3.90;99.90;;;;;;4976832;28;20454;-65
2021/12/07 17:16:30;;;;;;;11.03;3.60;;;3.80;99.90;;;;;;4976152;28;20462;-65
2021/12/07 17:18:57;;;;;;;5.23;3.67;;;3.80;99.90;;;;;;4975521;28;20935;-64
2021/12/07 17:21:24;;;;;;;6.10;3.63;;;3.70;99.90;;;;;;4978223;28;20849;-65
2021/12/07 17:23:51;;;;;;;9.50;4.03;;;3.70;99.90;;;;;;4984153;28;20463;-64
2021/12/07 17:26:18;;;;;;;6.77;3.47;;;3.70;99.90;;;;;;4985589;28;20451;-65
2021/12/07 17:28:47;;;;;;;7.00;3.60;;;3.60;99.90;;;;;;4982853;28;20482;-64
2021/12/07 17:31:14;;;;;;;8.83;3.70;;;3.60;99.90;;;;;;4980317;28;20475;-65
2021/12/07 17:33:40;;;;;;;5.60;3.40;;;3.40;99.90;;;;;;4978500;28;20455;-66
2021/12/07 17:36:07;;;;;;;6.03;3.87;;;3.40;99.90;;;;;;4977621;28;20554;-65
2021/12/07 17:38:34;;;;;;;4.63;3.43;;;3.30;99.90;;;;;;4978944;28;20820;-65
2021/12/07 17:41:01;;;;;;;7.37;4.27;;;3.30;99.90;;;;;;4978770;28;20479;-65
2021/12/07 17:43:28;;;;;;;8.30;3.63;;;3.20;99.90;;;;;;4979292;28;20466;-65
2021/12/07 17:45:56;;;;;;;5.13;3.20;;;3.20;99.90;;;;;;4978311;28;20455;-65
2021/12/07 17:48:23;;;;;;;6.30;3.50;;;3.20;99.90;;;;;;4978647;28;20462;-65
2021/12/07 17:50:50;;;;;;;9.63;4.40;;;3.20;99.90;;;;;;4980014;28;20483;-66
2021/12/07 17:53:17;;;;;;;5.27;3.43;;;3.10;99.90;;;;;;4979479;28;20455;-64
2021/12/07 17:55:46;;;;;;;7.00;4.27;;;3.10;99.90;;;;;;4980785;28;20455;-64
2021/12/07 17:58:14;;;;;;;6.70;3.60;;;3.00;99.90;;;;;;4979345;28;20482;-64
2021/12/07 18:00:46;;;;;;;5.03;3.50;;;3.00;99.90;;;;;;4979850;28;20471;-65
2021/12/07 18:03:15;;;;;;;5.53;3.73;;;3.00;99.90;;;;;;4979765;28;20462;-64
2021/12/07 18:05:41;;;;;;;11.33;3.67;;;3.00;99.90;;;;;;4979834;28;20459;-65
2021/12/07 18:08:10;;;;;;;5.90;3.20;;;3.00;99.90;;;;;;4979269;28;20993;-65
2021/12/07 18:10:37;;;;;;;4.70;3.50;;;3.00;99.90;;;;;;4979958;28;20482;-66
2021/12/07 18:13:05;;;;;;;4.87;3.97;;;3.00;99.90;;;;;;4980355;28;20462;-65
2021/12/07 18:15:33;;;;;;;7.77;4.30;;;2.90;99.90;;;;;;4979875;28;20482;-66
2021/12/07 18:18:01;;;;;;;8.40;4.03;;;3.00;99.90;;;;;;4979382;28;20466;-66
2021/12/07 18:20:33;;;;;;;5.17;3.77;;;3.00;99.90;;;;;;4978857;28;20458;-66
2021/12/07 18:23:00;;;;;;;6.73;4.20;;;2.90;99.90;;;;;;4978536;28;20494;-66
2021/12/07 18:25:29;;;;;;;9.33;4.10;;;2.90;99.90;;;;;;4978313;28;20794;-66
2021/12/07 18:27:56;;;;;;;5.60;3.67;;;2.90;99.90;;;;;;4978527;28;20455;-66
2021/12/07 18:30:25;;;;;;;6.10;3.70;;;2.90;99.90;;;;;;4978163;28;20490;-66
2021/12/07 18:32:52;;;;;;;5.90;4.17;;;2.90;99.90;;;;;;4978235;28;20467;-66
2021/12/07 18:35:19;;;;;;;7.57;3.87;;;2.90;99.90;;;;;;4978638;28;20462;-66